• Join FlightAware (Why Join?)
  • Login
  • US Flag 
06:52AM EST


 

Airport Tracker/Info


-or-


 

Live Flight TrackerFlight Track Log ✈ SWA641 ✈ 26-Apr-2013 ✈ KMSP - KSTL

Flight Track Log - Related Links

Times and Time Zones

All times are in EDT time to prevent confusion due to time zone crossing. See the SWA641 flight status page for this flight to view local times or setup timezone preferences in your user account.

Time Position Orientation Groundspeed Altitude Reporting Facility
EDT Latitude Longitude Course Direction KTS MPH feet Rate Location/Type
10:44AM 44.7900 -93.1436 130° Southeast 242 278 6,500  Level Minneapolis Center
10:45AM 44.7217 -93.0778 146° Southeast 299 344 9,300 3,048 Climbing Minneapolis Center
10:46AM 44.6389 -93.0444 164° South 314 361 12,800 3,677 Climbing Minneapolis Center
10:47AM 44.5258 -92.9967 163° South 354 407 16,900 3,387 Climbing Minneapolis Center
10:48AM 44.4253 -92.9603 166° South 370 426 19,800 1,500 Climbing Minneapolis Center
10:49AM 44.3181 -92.9281 168° South 388 447 20,000 97 Climbing Minneapolis Center
10:50AM 44.2081 -92.8944 168° South 404 465 20,000 823 Level Minneapolis Center
10:51AM 44.0953 -92.8606 168° South 415 478 21,700 968 Climbing Minneapolis Center
10:52AM 44.0014 -92.8314 167° South 426 490 22,000 1,016 Climbing Minneapolis Center
10:53AM 43.8372 -92.7803 167° South 433 498 23,800 1,984 Climbing Minneapolis Center
10:54AM 43.7339 -92.7503 168° South 440 506 26,100 2,323 Climbing Minneapolis Center
10:55AM 43.5875 -92.7050 167° South 452 520 28,600 2,516 Climbing Minneapolis Center
10:56AM 43.4614 -92.6656 167° South 464 534 31,300 2,274 Climbing Minneapolis Center
10:57AM 43.3367 -92.6306 168° South 462 532 33,300 2,081 Climbing Minneapolis Center
10:58AM 43.2142 -92.5942 168° South 456 525 35,600 1,839 Climbing Minneapolis Center
10:59AM 43.0933 -92.5586 168° South 450 518 37,100 1,452 Climbing Minneapolis Center
11:00AM 42.9469 -92.5142 167° South 453 521 38,600 1,355 Climbing Minneapolis Center
11:01AM 42.8217 -92.4775 168° South 462 532 39,900 1,161 Climbing Minneapolis Center
11:02AM 42.6994 -92.4428 168° South 458 527 41,000 532 Climbing Minneapolis Center
11:03AM 42.5783 -92.4067 168° South 453 521 41,000  Level Minneapolis Center
11:04AM 42.4572 -92.3775 170° South 450 518 41,000  Level Minneapolis Center
11:06AM 42.3122 -92.3425 170° South 448 516 41,000  Level Minneapolis Center
11:07AM 42.1903 -92.3164 171° South 448 516 41,000  Level Minneapolis Center
11:07AM 42.0931 -92.2917 169° South 448 516 41,000  Level Chicago Center
11:08AM 41.9708 -92.2631 170° South 450 518 41,000  Level Chicago Center
11:09AM 41.8494 -92.2361 171° South 448 516 41,000 -98 Level Chicago Center
11:10AM 41.7033 -92.2033 170° South 446 513 40,800 -585 Descending Chicago Center
11:11AM 41.5794 -92.1758 171° South 452 520 39,800 -919 Descending Chicago Center
11:12AM 41.4592 -92.1475 170° South 445 512 38,900 -968 Descending Chicago Center
11:14AM 41.3442 -92.0883 159° South 453 521 37,800 -1,452 Descending Chicago Center
11:15AM 41.2308 -92.0225 156° South 451 519 35,900 -1,984 Descending Chicago Center
11:16AM 41.0950 -91.9475 157° South 455 524 33,700 -1,561 Descending Chicago Center
11:17AM 40.9786 -91.9658 187° South 418 481 32,700 -976 Descending Chicago Center
11:18AM 40.8692 -91.9911 190° South 403 464 31,700 -823 Descending Chicago Center
11:19AM 40.7603 -91.9681 171° South 416 479 31,000 -629 Descending Chicago Center
11:20AM 40.6569 -91.8875 149° Southeast 429 494 30,400 -706 Descending Chicago Center
11:21AM 40.5500 -91.8047 150° Southeast 437 503 29,600 -934 Descending Kansas City Center
11:22AM 40.4417 -91.7222 150° Southeast 446 513 28,500 -1,000 Descending Kansas City Center
11:23AM 40.3333 -91.6411 150° Southeast 449 517 27,500 -992 Descending Kansas City Center
11:24AM 40.2294 -91.5617 150° Southeast 440 506 26,500 -1,065 Descending Kansas City Center
11:25AM 40.1042 -91.4672 150° Southeast 435 501 25,300 -1,065 Descending Kansas City Center
11:26AM 40.0036 -91.3903 150° Southeast 429 494 24,300 -976 Descending Kansas City Center
11:27AM 39.9019 -91.3153 150° Southeast 425 489 23,300 -960 Descending Kansas City Center
11:28AM 39.8028 -91.2417 150° Southeast 417 480 22,300 -1,033 Descending Kansas City Center
11:29AM 39.7042 -91.1642 149° Southeast 415 478 21,200 -1,561 Descending Kansas City Center
11:30AM 39.6100 -91.0867 148° Southeast 410 472 19,100 -2,758 Descending Kansas City Center
11:31AM 39.5011 -90.9958 147° Southeast 396 456 15,500 -3,312 Descending Kansas City Center
11:32AM 39.4047 -90.9194 149° Southeast 403 464 12,200 -2,226 Descending Kansas City Center
11:33AM 39.3164 -90.8494 148° Southeast 380 437 10,900 -1,073 Descending Kansas City Center
11:34AM 39.2300 -90.8161 163° South 333 383 10,000 -823 Descending Kansas City Center
11:35AM 39.1539 -90.7858 163° South 308 354 9,200 -984 Descending Kansas City Center
11:36AM 39.0903 -90.7381 150° Southeast 282 325 8,000 -1,104 Descending Kansas City Center
11:37AM 39.0269 -90.6933 151° Southeast 268 308 6,900 -1,392 Descending Kansas City Center
11:38AM 38.9550 -90.6439 152° Southeast 255 293 5,100 -1,645 Descending Kansas City Center
11:39AM 38.8958 -90.6031 152° Southeast 246 283 3,500 -829 Descending Kansas City Center
11:40AM 38.8431 -90.5625 149° Southeast 236 272 3,400 -347 Descending Kansas City Center
11:41AM 38.8156 -90.5042 121° Southeast 207 238 2,800 -726 Descending Kansas City Center
11:42AM 38.7892 -90.4514 123° Southeast 189 217 1,900 -823 Descending Kansas City Center
11:43AM 38.7689 -90.4103 122° Southeast 159 183 1,100 -624 Descending Kansas City Center
11:44AM 38.7492 -90.3678 121° Southeast 142 163 600 -469 Descending Kansas City Center